createdAt,value
2018-07-10T00:00:35.793Z,21.57
2018-07-10T00:06:17.832Z,21.45
2018-07-10T00:11:57.584Z,21.27
2018-07-10T00:15:22.461Z,21.19
2018-07-10T00:18:47.165Z,20.88
2018-07-10T00:22:11.594Z,20.70
2018-07-10T00:25:36.322Z,20.86
2018-07-10T00:29:00.985Z,20.61
2018-07-10T00:32:25.282Z,20.59
2018-07-10T00:35:50.041Z,20.64
2018-07-10T00:39:14.797Z,20.76
2018-07-10T00:42:39.567Z,20.81
2018-07-10T00:46:04.339Z,20.49
2018-07-10T00:49:29.153Z,20.43
2018-07-10T00:52:53.869Z,20.48
2018-07-10T00:56:18.593Z,20.55
2018-07-10T00:59:43.286Z,20.37
2018-07-10T01:03:08.151Z,20.38
2018-07-10T01:06:33.004Z,20.35
2018-07-10T01:09:57.753Z,20.40
2018-07-10T01:13:22.510Z,20.33
2018-07-10T01:16:47.262Z,20.39
2018-07-10T01:20:12.156Z,20.40
2018-07-10T01:23:38.786Z,20.36
2018-07-10T01:27:03.583Z,20.34
2018-07-10T01:30:28.349Z,20.20
2018-07-10T01:33:53.081Z,20.17
2018-07-10T01:37:17.836Z,20.11
2018-07-10T01:40:43.854Z,20.24
2018-07-10T01:44:08.527Z,20.15
2018-07-10T01:47:33.210Z,20.32
2018-07-10T01:50:57.954Z,20.27
2018-07-10T01:54:22.257Z,20.20
2018-07-10T01:57:47.073Z,20.24
2018-07-10T02:01:11.860Z,20.22
2018-07-10T02:04:38.106Z,20.06
2018-07-10T02:08:03.288Z,20.01
2018-07-10T02:11:28.138Z,20.09
2018-07-10T02:14:52.828Z,20.02
2018-07-10T02:18:17.590Z,19.98
2018-07-10T02:21:41.850Z,19.98
2018-07-10T02:25:06.673Z,19.99
2018-07-10T02:28:31.412Z,20.05
2018-07-10T02:31:56.241Z,19.98
2018-07-10T02:35:20.962Z,20.06
2018-07-10T02:38:48.777Z,19.94
2018-07-10T02:42:13.101Z,19.97
2018-07-10T02:45:37.874Z,20.22
2018-07-10T02:49:11.338Z,20.35
2018-07-10T02:52:39.995Z,20.20
2018-07-10T02:56:05.515Z,20.11
2018-07-10T02:59:36.522Z,20.09
2018-07-10T03:03:02.534Z,20.08
2018-07-10T03:06:27.218Z,20.00
2018-07-10T03:09:51.971Z,20.00
2018-07-10T03:13:17.318Z,19.85
2018-07-10T03:16:42.076Z,19.93
2018-07-10T03:20:07.711Z,19.85
2018-07-10T03:23:32.418Z,19.97
2018-07-10T03:26:57.093Z,20.02
2018-07-10T03:30:22.066Z,19.93
2018-07-10T03:33:46.897Z,19.97
2018-07-10T03:37:12.668Z,20.12
2018-07-10T03:40:37.424Z,20.08
2018-07-10T03:44:02.166Z,20.08
2018-07-10T03:47:28.122Z,19.90
2018-07-10T03:50:53.400Z,19.91
2018-07-10T03:54:19.084Z,20.12
2018-07-10T03:57:43.952Z,19.82
2018-07-10T04:01:08.780Z,19.90
2018-07-10T04:04:33.534Z,19.88
2018-07-10T04:07:58.908Z,19.89
2018-07-10T04:11:24.717Z,20.16
2018-07-10T04:14:49.471Z,19.85
2018-07-10T04:18:16.132Z,19.54
2018-07-10T04:21:40.892Z,19.68
2018-07-10T04:25:05.705Z,19.83
2018-07-10T04:28:35.763Z,19.47
2018-07-10T04:32:01.790Z,19.33
2018-07-10T04:35:28.361Z,19.43
2018-07-10T04:38:57.206Z,19.30
2018-07-10T04:42:29.566Z,19.27
2018-07-10T04:45:57.177Z,19.36
2018-07-10T04:49:30.719Z,19.39
2018-07-10T04:53:03.254Z,19.49
2018-07-10T04:56:28.953Z,19.50
2018-07-10T04:59:53.691Z,19.67
2018-07-10T05:03:20.668Z,19.80
2018-07-10T05:06:45.431Z,19.58
2018-07-10T05:10:10.485Z,19.50
2018-07-10T05:13:36.146Z,19.63
2018-07-10T05:17:01.431Z,19.45
2018-07-10T05:20:27.378Z,19.37
2018-07-10T05:23:52.214Z,19.31
2018-07-10T05:27:17.247Z,19.48
2018-07-10T05:30:43.960Z,19.40
2018-07-10T05:34:08.824Z,19.49
2018-07-10T05:37:37.267Z,19.50
2018-07-10T05:41:01.999Z,19.44
2018-07-10T05:44:26.338Z,19.57
2018-07-10T05:47:57.570Z,19.70
2018-07-10T05:51:23.554Z,20.02
2018-07-10T05:54:48.469Z,19.90
2018-07-10T05:58:12.921Z,19.81
2018-07-10T06:01:38.964Z,20.29
2018-07-10T06:05:03.741Z,20.33
2018-07-10T06:08:28.581Z,20.04
2018-07-10T06:11:53.278Z,20.12
2018-07-10T06:15:18.533Z,20.38
2018-07-10T06:18:44.212Z,20.62
2018-07-10T06:22:09.121Z,20.73
2018-07-10T06:25:35.814Z,20.63
2018-07-10T06:29:05.119Z,20.83
2018-07-10T06:32:36.846Z,20.25
2018-07-10T06:36:18.898Z,20.64
2018-07-10T06:39:43.603Z,20.82
2018-07-10T06:44:12.512Z,21.13
2018-07-10T06:47:48.757Z,21.04
2018-07-10T06:51:19.858Z,21.53
2018-07-10T06:54:57.511Z,21.26
2018-07-10T06:58:23.861Z,21.37
2018-07-10T07:01:49.621Z,21.38
2018-07-10T07:05:14.985Z,22.04
2018-07-10T07:08:39.848Z,22.02
2018-07-10T07:12:05.309Z,21.68
2018-07-10T07:15:30.104Z,21.71
2018-07-10T07:19:01.172Z,21.46
2018-07-10T07:22:26.295Z,21.90
2018-07-10T07:26:01.799Z,22.01
2018-07-10T07:29:27.634Z,22.48
2018-07-10T07:36:05.787Z,21.96
2018-07-10T07:39:31.703Z,22.05
2018-07-10T07:43:05.348Z,22.21
2018-07-10T07:46:31.322Z,21.91
2018-07-10T07:49:56.317Z,22.36
2018-07-10T07:53:21.444Z,22.59
2018-07-10T07:56:47.645Z,22.03
2018-07-10T08:00:12.383Z,22.06
2018-07-10T08:03:38.611Z,22.67
2018-07-10T08:07:03.411Z,22.87
2018-07-10T08:10:28.273Z,22.78
2018-07-10T08:13:53.233Z,22.43
2018-07-10T08:17:18.207Z,22.32
2018-07-10T08:20:43.133Z,22.95
2018-07-10T08:24:09.147Z,22.59
2018-07-10T08:27:37.327Z,22.31
2018-07-10T08:31:03.939Z,23.00
2018-07-10T08:34:30.325Z,22.95
2018-07-10T08:37:55.361Z,22.67
2018-07-10T08:41:22.519Z,22.21
2018-07-10T08:44:47.266Z,22.78
2018-07-10T08:48:13.060Z,23.20
2018-07-10T08:51:38.016Z,23.22
2018-07-10T08:55:03.375Z,23.17
2018-07-10T08:58:28.226Z,23.57
2018-07-10T09:01:53.358Z,23.16
2018-07-10T09:05:18.199Z,23.54
2018-07-10T09:08:42.959Z,23.77
2018-07-10T09:12:07.352Z,23.55
2018-07-10T09:15:33.307Z,23.41
2018-07-10T09:18:57.677Z,23.29
2018-07-10T09:22:22.382Z,24.08
2018-07-10T09:25:47.230Z,23.51
2018-07-10T09:29:11.527Z,23.45
2018-07-10T09:32:41.669Z,22.88
2018-07-10T09:36:06.308Z,23.42
2018-07-10T09:39:31.277Z,23.13
2018-07-10T09:43:01.413Z,23.44
2018-07-10T09:46:29.861Z,23.62
2018-07-10T09:49:54.719Z,23.78
2018-07-10T09:53:19.478Z,24.27
2018-07-10T09:56:44.471Z,24.13
2018-07-10T10:00:09.314Z,25.40
2018-07-10T10:03:34.835Z,24.84
2018-07-10T10:07:00.342Z,24.39
2018-07-10T10:10:25.310Z,24.57
2018-07-10T10:13:50.308Z,24.20
2018-07-10T10:17:16.184Z,23.55
2018-07-10T10:20:42.078Z,24.37
2018-07-10T10:24:06.487Z,24.02
2018-07-10T10:27:32.601Z,24.05
2018-07-10T10:30:57.363Z,23.91
2018-07-10T10:34:22.026Z,23.50
2018-07-10T10:37:47.247Z,23.43
2018-07-10T10:41:13.511Z,24.08
2018-07-10T10:44:38.198Z,23.34
2018-07-10T10:48:02.695Z,23.51
2018-07-10T10:51:27.513Z,23.67
2018-07-10T10:54:52.276Z,23.94
2018-07-10T10:58:17.067Z,23.66
2018-07-10T11:01:41.405Z,23.71
2018-07-10T11:05:06.265Z,24.21
2018-07-10T11:08:31.135Z,24.51
2018-07-10T11:11:57.244Z,24.09
2018-07-10T11:15:22.318Z,24.72
2018-07-10T11:19:00.905Z,24.74
2018-07-10T11:22:25.988Z,24.56
2018-07-10T11:25:50.970Z,24.06
2018-07-10T11:29:16.009Z,24.77
2018-07-10T11:32:40.755Z,24.84
2018-07-10T11:36:05.465Z,24.58
2018-07-10T11:39:30.636Z,24.83
2018-07-10T11:42:55.288Z,24.94
2018-07-10T11:46:20.042Z,24.93
2018-07-10T11:49:44.338Z,24.73
2018-07-10T11:53:10.091Z,24.37
2018-07-10T11:56:34.861Z,24.42
2018-07-10T11:59:59.681Z,24.49
2018-07-10T12:03:25.878Z,24.45
2018-07-10T12:06:52.345Z,24.64
2018-07-10T12:10:26.188Z,24.44
2018-07-10T12:13:50.907Z,24.34
2018-07-10T12:17:15.217Z,24.77
2018-07-10T12:20:41.461Z,24.09
2018-07-10T12:24:06.772Z,24.15
2018-07-10T12:27:31.771Z,24.42
2018-07-10T12:30:56.461Z,24.05
2018-07-10T12:34:21.151Z,24.38
2018-07-10T12:37:45.893Z,24.15
2018-07-10T12:41:11.677Z,24.07
2018-07-10T12:44:36.390Z,24.04
2018-07-10T12:48:01.163Z,24.76
2018-07-10T12:51:25.905Z,25.44
2018-07-10T12:54:50.919Z,25.01
2018-07-10T12:58:16.792Z,24.69
2018-07-10T13:01:41.497Z,24.95
2018-07-10T13:05:07.514Z,24.92
2018-07-10T13:08:33.287Z,24.89
2018-07-10T13:11:57.671Z,24.92
2018-07-10T13:15:22.503Z,24.92
2018-07-10T13:18:47.254Z,25.43
2018-07-10T13:22:11.994Z,25.18
2018-07-10T13:25:36.709Z,25.31
2018-07-10T13:29:01.458Z,25.37
2018-07-10T13:32:26.264Z,25.12
2018-07-10T13:35:51.131Z,25.40
2018-07-10T13:39:15.761Z,26.22
2018-07-10T13:42:48.981Z,26.28
2018-07-10T13:46:13.672Z,26.06
2018-07-10T13:49:37.927Z,26.16
2018-07-10T13:53:04.153Z,27.68
2018-07-10T13:56:28.795Z,27.63
2018-07-10T13:59:53.443Z,26.94
2018-07-10T14:03:18.164Z,26.88
2018-07-10T14:06:42.559Z,25.27
2018-07-10T14:10:07.277Z,26.23
2018-07-10T14:13:31.635Z,26.98
2018-07-10T14:16:56.371Z,26.06
2018-07-10T14:20:21.060Z,26.62
2018-07-10T14:23:45.792Z,26.61
2018-07-10T14:27:10.519Z,27.19
2018-07-10T14:30:36.244Z,27.12
2018-07-10T14:34:00.951Z,26.50
2018-07-10T14:37:25.298Z,26.98
2018-07-10T14:40:51.268Z,26.67
2018-07-10T14:44:16.160Z,26.08
2018-07-10T14:47:40.837Z,25.69
2018-07-10T14:51:05.543Z,25.56
2018-07-10T14:54:30.256Z,26.01
2018-07-10T14:57:55.762Z,25.76
2018-07-10T15:01:20.474Z,25.46
2018-07-10T15:04:45.186Z,25.44
2018-07-10T15:09:38.928Z,25.25
2018-07-10T15:13:03.630Z,25.34
2018-07-10T15:16:33.112Z,24.66
2018-07-10T15:19:57.882Z,24.86
2018-07-10T15:23:22.679Z,24.67
2018-07-10T15:26:47.321Z,24.83
2018-07-10T15:30:12.114Z,24.72
2018-07-10T15:33:36.835Z,24.49
2018-07-10T15:37:02.188Z,24.29
2018-07-10T15:40:26.918Z,23.94
2018-07-10T15:43:51.607Z,23.74
2018-07-10T15:47:16.317Z,23.87
2018-07-10T15:50:41.090Z,24.10
2018-07-10T15:54:05.445Z,24.22
2018-07-10T15:57:29.796Z,24.65
2018-07-10T16:00:54.548Z,24.13
2018-07-10T16:04:19.322Z,24.21
2018-07-10T16:07:44.076Z,24.38
2018-07-10T16:11:08.376Z,24.37
2018-07-10T16:14:33.047Z,24.04
2018-07-10T16:17:57.376Z,23.44
2018-07-10T16:21:22.104Z,24.07
2018-07-10T16:24:51.115Z,24.41
2018-07-10T16:28:18.297Z,24.07
2018-07-10T16:31:45.449Z,23.98
2018-07-10T16:35:10.750Z,24.03
2018-07-10T16:38:37.282Z,23.90
2018-07-10T16:42:07.261Z,24.49
2018-07-10T16:45:37.594Z,24.23
2018-07-10T16:49:43.861Z,23.89
2018-07-10T16:53:08.620Z,25.19
2018-07-10T16:56:33.363Z,25.09
2018-07-10T16:59:58.544Z,25.59
2018-07-10T17:03:23.249Z,25.25
2018-07-10T17:06:47.971Z,25.49
2018-07-10T17:10:12.930Z,24.40
2018-07-10T17:13:38.694Z,23.94
2018-07-10T17:17:03.425Z,23.73
2018-07-10T17:20:28.309Z,23.74
2018-07-10T17:23:53.832Z,23.73
2018-07-10T17:27:23.319Z,24.62
2018-07-10T17:30:48.021Z,24.47
2018-07-10T17:34:12.874Z,24.72
2018-07-10T17:37:48.273Z,24.99
2018-07-10T17:41:13.168Z,25.30
2018-07-10T17:44:39.128Z,24.74
2018-07-10T17:48:03.871Z,24.40
2018-07-10T17:51:31.887Z,24.65
2018-07-10T17:54:56.608Z,24.85
2018-07-10T17:58:23.115Z,25.78
2018-07-10T18:01:48.050Z,24.53
2018-07-10T18:05:13.067Z,24.23
2018-07-10T18:08:39.045Z,23.62
2018-07-10T18:12:04.193Z,23.33
2018-07-10T18:15:29.221Z,23.02
2018-07-10T18:18:54.234Z,23.08
2018-07-10T18:22:19.496Z,22.75
2018-07-10T18:25:44.512Z,23.19
2018-07-10T18:29:09.434Z,23.12
2018-07-10T18:32:34.076Z,22.75
2018-07-10T18:35:59.726Z,22.71
2018-07-10T18:39:24.659Z,22.68
2018-07-10T18:42:49.783Z,22.52
2018-07-10T18:46:14.834Z,22.48
2018-07-10T18:49:39.908Z,22.39
2018-07-10T18:53:04.819Z,22.16
2018-07-10T18:56:30.785Z,22.34
2018-07-10T19:00:06.480Z,22.13
2018-07-10T19:03:34.656Z,22.08
2018-07-10T19:06:59.244Z,21.98
2018-07-10T19:10:24.408Z,21.97
2018-07-10T19:13:49.357Z,22.05
2018-07-10T19:17:17.996Z,22.01
2018-07-10T19:20:53.887Z,21.91
2018-07-10T19:24:19.709Z,21.75
2018-07-10T19:27:46.723Z,21.75
2018-07-10T19:31:19.433Z,21.66
2018-07-10T19:34:44.653Z,21.69
2018-07-10T19:38:10.266Z,21.54
2018-07-10T19:41:34.971Z,21.74
2018-07-10T19:45:02.199Z,21.66
2018-07-10T19:48:26.971Z,21.60
2018-07-10T19:51:52.089Z,21.40
2018-07-10T19:55:18.598Z,21.43
2018-07-10T19:58:45.279Z,21.07
2018-07-10T20:02:10.787Z,20.97
2018-07-10T20:05:36.910Z,20.77
2018-07-10T20:09:08.822Z,20.69
2018-07-10T20:12:39.304Z,20.73
2018-07-10T20:16:09.637Z,20.69
2018-07-10T20:19:44.476Z,20.54
2018-07-10T20:23:30.180Z,20.56
2018-07-10T20:27:10.522Z,20.27
2018-07-10T20:30:53.271Z,20.34
2018-07-10T20:34:55.390Z,20.37
2018-07-10T20:38:21.109Z,20.25
2018-07-10T20:41:47.722Z,20.32
2018-07-10T20:45:13.186Z,20.28
2018-07-10T20:48:55.898Z,20.30
2018-07-10T20:53:01.377Z,20.19
2018-07-10T20:58:49.649Z,20.33
2018-07-10T21:04:27.766Z,20.07
2018-07-10T21:07:57.648Z,20.04
2018-07-10T21:11:28.336Z,20.25
2018-07-10T21:15:05.603Z,20.10
2018-07-10T21:19:47.457Z,20.15
2018-07-10T21:23:26.797Z,19.95
2018-07-10T21:27:01.251Z,20.07
2018-07-10T21:30:49.778Z,19.93
2018-07-10T21:34:25.160Z,19.72
2018-07-10T21:38:02.965Z,20.02
2018-07-10T21:42:51.096Z,19.61
2018-07-10T21:46:33.821Z,19.62
2018-07-10T21:50:02.310Z,19.53
2018-07-10T21:53:27.543Z,19.70
2018-07-10T21:56:53.220Z,19.47
2018-07-10T22:00:18.581Z,19.62
2018-07-10T22:03:43.850Z,19.19
2018-07-10T22:07:13.412Z,19.39
2018-07-10T22:10:38.650Z,19.39
2018-07-10T22:14:03.976Z,19.25
2018-07-10T22:17:29.355Z,19.25
2018-07-10T22:20:54.712Z,19.28
2018-07-10T22:24:20.367Z,19.11
2018-07-10T22:27:45.782Z,18.98
2018-07-10T22:31:17.096Z,19.29
2018-07-10T22:34:45.275Z,19.06
2018-07-10T22:38:10.049Z,19.13
2018-07-10T22:41:35.417Z,19.05
2018-07-10T22:45:01.020Z,18.91
2018-07-10T22:48:26.411Z,18.88
2018-07-10T22:51:51.668Z,19.07
2018-07-10T22:55:20.956Z,18.74
2018-07-10T22:58:46.297Z,18.77
2018-07-10T23:02:17.089Z,18.77
2018-07-10T23:05:44.219Z,18.75
2018-07-10T23:09:08.551Z,18.71
2018-07-10T23:12:33.262Z,18.67
2018-07-10T23:15:58.015Z,18.59
2018-07-10T23:19:22.779Z,18.59
2018-07-10T23:22:55.916Z,18.45
2018-07-10T23:26:20.730Z,18.28
2018-07-10T23:29:45.463Z,18.21
2018-07-10T23:33:15.940Z,18.11
2018-07-10T23:36:40.374Z,18.06
2018-07-10T23:40:05.694Z,18.00
2018-07-10T23:43:38.800Z,18.10
2018-07-10T23:47:13.283Z,18.08
2018-07-10T23:50:38.328Z,18.05
2018-07-10T23:54:03.043Z,17.94
2018-07-10T23:57:27.724Z,17.94
